Lamar, Arkansas
Current Conditions -  °F | °C
As of 2:11 PM on Sunday 23 Nov 2014 (Local Time) from KRUE Reporting Station
Overcast Overcast  
Wind Chill: 62°   Ceiling: 800
Heat Index: 62°   Visibility: 10mi
Dew Point: 59°   Wind: 3mph
Humidity: 90%   Direction: 90°E
Pressure: 29.34"   Gusts: NA
Location:  35.44°N, 93.39°W
Report Text: KRUE 232011Z AUTO 09003KT 10SM OVC008 17/15 A2934 RMK AO2 CIG 005V012 T01670150
Loading
Personal Weather Stations






























Interactive Weather Map New forecast layout! Learn more

10-Day Weather Forecast

Advertisements
Track Severe Weather on mobile